Time;durP1;ratioP1;P1;durP2;ratioP2;P2;SDS_P1;SDS_P2;PMS_P1;PMS_P2;Temp;Humidity;BMP_temperature;BMP_pressure;BME280_temperature;BME280_humidity;BME280_pressure;Samples;Min_cycle;Max_cycle;Signal;HPM_P1;HPM_P2
2023/07/20 00:00:15;;;;;;;2.90;1.50;;;16.00;99.90;;;;;;5002220;28;20536;-87
2023/07/20 00:02:41;;;;;;;3.80;1.20;;;16.00;99.90;;;;;;5009659;28;20125;-87
2023/07/20 00:08:17;;;;;;;4.40;1.27;;;16.10;99.90;;;;;;5011115;28;20042;-87
2023/07/20 00:10:43;;;;;;;3.78;1.00;;;16.00;99.90;;;;;;5004912;28;20490;-87
2023/07/20 00:13:09;;;;;;;3.63;1.20;;;16.00;99.90;;;;;;4994381;28;20068;-87
2023/07/20 00:15:37;;;;;;;3.65;1.23;;;15.90;99.90;;;;;;4992292;28;20084;-87
2023/07/20 00:18:04;;;;;;;3.47;1.52;;;15.90;99.90;;;;;;5010322;28;20445;-87
2023/07/20 00:20:30;;;;;;;3.90;1.33;;;15.90;99.90;;;;;;5023610;28;20525;-86
2023/07/20 00:23:02;;;;;;;2.65;1.20;;;15.90;99.90;;;;;;5004832;28;20477;-87
2023/07/20 00:25:28;;;;;;;5.45;1.30;;;15.90;99.90;;;;;;5011526;28;20401;-87
2023/07/20 00:27:54;;;;;;;7.43;1.40;;;15.90;99.90;;;;;;5029166;28;20041;-87
2023/07/20 00:30:22;;;;;;;3.92;1.30;;;15.80;99.90;;;;;;5010994;28;20091;-87
2023/07/20 00:32:57;;;;;;;3.15;1.40;;;15.80;99.90;;;;;;5012144;28;20103;-87
2023/07/20 00:35:39;;;;;;;6.05;1.45;;;15.80;99.90;;;;;;4992766;28;20038;-87
2023/07/20 00:38:05;;;;;;;2.70;1.35;;;15.80;99.90;;;;;;4993568;28;20076;-87
2023/07/20 00:40:41;;;;;;;3.20;1.40;;;15.70;99.90;;;;;;4992869;28;20128;-87
2023/07/20 00:43:09;;;;;;;5.35;1.80;;;15.70;99.90;;;;;;5014532;28;20048;-87
2023/07/20 00:45:56;;;;;;;4.78;1.60;;;15.70;99.90;;;;;;5001940;28;20624;-87
2023/07/20 00:48:29;;;;;;;4.80;1.58;;;15.70;99.90;;;;;;5007593;28;20058;-86
2023/07/20 00:51:05;;;;;;;4.18;1.70;;;15.60;99.90;;;;;;4992065;28;20042;-87
2023/07/20 00:53:30;;;;;;;8.20;1.70;;;15.60;99.90;;;;;;4992958;28;20053;-87
2023/07/20 00:55:57;;;;;;;4.90;1.60;;;15.50;99.90;;;;;;5011838;28;20045;-87
2023/07/20 00:58:24;;;;;;;4.28;1.70;;;15.50;99.90;;;;;;5011133;28;20053;-87
2023/07/20 01:00:57;;;;;;;5.22;1.42;;;15.40;99.90;;;;;;5010762;28;20127;-87
2023/07/20 01:03:23;;;;;;;3.05;1.30;;;15.40;99.90;;;;;;5011858;28;20076;-87
2023/07/20 01:06:15;;;;;;;4.45;1.40;;;15.40;99.90;;;;;;5010710;28;20118;-87
2023/07/20 01:08:47;;;;;;;5.65;1.50;;;15.30;99.90;;;;;;5027779;28;20037;-87
2023/07/20 01:11:17;;;;;;;3.20;1.40;;;15.20;99.90;;;;;;5027668;28;20480;-87
2023/07/20 01:13:44;;;;;;;3.10;1.27;;;15.10;99.90;;;;;;5010367;28;20776;-87
2023/07/20 01:16:10;;;;;;;3.20;1.52;;;15.10;99.90;;;;;;5029386;28;20045;-87
2023/07/20 01:18:35;;;;;;;4.72;1.58;;;15.00;99.90;;;;;;5024259;28;20180;-87
2023/07/20 01:21:37;;;;;;;3.55;1.55;;;15.00;99.90;;;;;;5001430;28;20124;-87
2023/07/20 01:24:39;;;;;;;3.70;1.52;;;14.90;99.90;;;;;;4980993;28;20052;-88
2023/07/20 01:27:42;;;;;;;3.45;1.30;;;14.90;99.90;;;;;;5014136;28;20045;-88
2023/07/20 01:30:58;;;;;;;3.60;1.65;;;14.80;99.90;;;;;;5011774;28;20049;-88
2023/07/20 01:36:36;;;;;;;3.45;1.60;;;14.60;99.90;;;;;;5020296;28;20055;-88
2023/07/20 01:39:08;;;;;;;2.53;1.35;;;14.50;99.90;;;;;;5016872;28;20108;-88
2023/07/20 01:41:35;;;;;;;3.83;1.23;;;14.50;99.90;;;;;;5025745;28;20048;-88
2023/07/20 01:44:00;;;;;;;4.47;1.40;;;14.50;99.90;;;;;;4999907;28;20042;-88
2023/07/20 01:46:26;;;;;;;3.00;1.35;;;14.40;99.90;;;;;;4991050;28;20048;-88
2023/07/20 01:48:56;;;;;;;4.90;1.88;;;14.40;99.90;;;;;;5008287;28;20042;-87
2023/07/20 01:51:28;;;;;;;4.63;1.52;;;14.40;99.90;;;;;;5079940;22;20061;-87
2023/07/20 01:53:56;;;;;;;3.47;1.13;;;14.30;99.90;;;;;;5031127;28;20514;-87
2023/07/20 01:56:21;;;;;;;2.78;1.30;;;14.20;99.90;;;;;;5041916;28;20399;-87
2023/07/20 01:58:47;;;;;;;5.07;1.70;;;14.20;99.90;;;;;;5030665;28;20488;-87
2023/07/20 02:01:13;;;;;;;3.50;1.38;;;14.10;99.90;;;;;;5030326;28;20057;-87
2023/07/20 02:03:41;;;;;;;6.75;1.58;;;14.00;99.90;;;;;;5030203;28;20056;-86
2023/07/20 02:06:10;;;;;;;8.15;1.58;;;14.00;99.90;;;;;;5034632;28;20396;-87
2023/07/20 02:08:39;;;;;;;3.60;1.52;;;14.00;99.90;;;;;;5046516;28;20051;-87
2023/07/20 02:11:10;;;;;;;2.78;1.30;;;14.00;99.90;;;;;;5047318;28;20519;-87
2023/07/20 02:13:39;;;;;;;2.90;1.42;;;13.90;99.90;;;;;;5030660;28;20037;-87
2023/07/20 02:16:07;;;;;;;3.25;1.27;;;13.90;99.90;;;;;;5029985;28;20489;-86
2023/07/20 02:18:33;;;;;;;4.78;1.65;;;13.90;99.90;;;;;;5030427;28;20055;-87
2023/07/20 02:21:17;;;;;;;5.15;1.60;;;13.90;99.90;;;;;;5048279;28;20128;-87
2023/07/20 02:23:43;;;;;;;7.07;1.60;;;13.90;99.90;;;;;;5030741;28;20036;-87
2023/07/20 02:26:15;;;;;;;3.55;1.38;;;13.90;99.90;;;;;;5047042;28;20056;-87
2023/07/20 02:28:41;;;;;;;1.75;1.13;;;13.90;99.90;;;;;;5016767;28;20048;-87
2023/07/20 02:31:07;;;;;;;7.43;1.30;;;13.90;99.90;;;;;;5029578;28;20041;-87
2023/07/20 02:33:35;;;;;;;2.80;1.40;;;13.80;99.90;;;;;;5030274;28;20045;-87
2023/07/20 02:36:03;;;;;;;3.33;1.17;;;13.80;99.90;;;;;;5029210;28;20037;-86
2023/07/20 02:38:38;;;;;;;3.58;1.40;;;13.80;99.90;;;;;;5046915;28;20057;-87
2023/07/20 02:41:10;;;;;;;4.32;1.02;;;13.70;99.90;;;;;;5046243;28;20079;-87
2023/07/20 02:43:39;;;;;;;2.28;1.02;;;13.60;99.90;;;;;;5029278;28;20071;-87
2023/07/20 02:46:11;;;;;;;2.42;1.50;;;13.60;99.90;;;;;;5030424;28;20083;-87
2023/07/20 02:48:39;;;;;;;9.70;1.50;;;13.50;99.90;;;;;;5030586;28;20114;-87
2023/07/20 02:51:17;;;;;;;5.05;1.10;;;13.40;99.90;;;;;;5029411;28;20537;-86
2023/07/20 02:53:43;;;;;;;8.30;1.20;;;13.40;99.90;;;;;;5043511;28;20063;-87
2023/07/20 02:56:12;;;;;;;2.90;1.10;;;13.40;99.90;;;;;;5030278;28;20136;-87
2023/07/20 02:58:43;;;;;;;2.65;1.02;;;13.30;99.90;;;;;;5046491;28;20032;-87
2023/07/20 03:01:38;;;;;;;5.60;1.38;;;13.30;99.90;;;;;;5033210;28;20080;-87
2023/07/20 03:04:05;;;;;;;4.57;1.13;;;13.20;99.90;;;;;;5016819;28;20485;-87
2023/07/20 03:06:35;;;;;;;3.70;1.10;;;13.20;99.90;;;;;;5030186;28;20059;-87
2023/07/20 03:09:06;;;;;;;6.78;1.77;;;13.10;99.90;;;;;;5045199;28;20056;-87
2023/07/20 03:11:35;;;;;;;3.28;0.90;;;13.10;99.90;;;;;;5048549;28;20053;-87
2023/07/20 03:14:10;;;;;;;3.88;1.15;;;13.10;99.90;;;;;;5051583;28;20045;-87
2023/07/20 03:16:51;;;;;;;2.55;0.90;;;13.00;99.90;;;;;;5032859;28;20131;-87
2023/07/20 03:19:46;;;;;;;4.45;1.15;;;12.90;99.90;;;;;;5062200;28;20048;-87
2023/07/20 03:22:21;;;;;;;3.58;1.10;;;12.90;99.90;;;;;;5050837;28;20477;-87
2023/07/20 03:24:48;;;;;;;5.55;1.10;;;12.80;99.90;;;;;;5033295;28;20132;-87
2023/07/20 03:27:19;;;;;;;2.40;0.80;;;12.70;99.90;;;;;;5033506;28;20095;-87
2023/07/20 03:30:01;;;;;;;3.13;0.77;;;12.60;99.90;;;;;;5033742;28;20048;-87
2023/07/20 03:32:29;;;;;;;1.55;0.82;;;12.50;99.90;;;;;;5032148;28;20060;-87
2023/07/20 03:35:06;;;;;;;2.10;0.85;;;12.40;99.90;;;;;;5033917;28;20041;-87
2023/07/20 03:37:47;;;;;;;1.80;0.70;;;12.40;99.90;;;;;;5033790;28;20056;-87
2023/07/20 03:40:58;;;;;;;2.95;1.20;;;12.40;99.90;;;;;;5035666;28;20058;-87
2023/07/20 03:43:35;;;;;;;4.20;1.20;;;12.30;99.90;;;;;;5017140;28;20052;-87
2023/07/20 03:46:09;;;;;;;4.03;0.90;;;12.30;99.90;;;;;;5027833;28;20060;-87
2023/07/20 03:49:08;;;;;;;2.85;1.20;;;12.30;99.90;;;;;;5050495;28;20036;-87
2023/07/20 03:51:37;;;;;;;2.20;0.77;;;12.30;99.90;;;;;;5050202;28;20489;-87
2023/07/20 03:54:08;;;;;;;4.13;1.08;;;12.30;99.90;;;;;;5030352;28;20060;-87
2023/07/20 03:56:37;;;;;;;4.50;1.20;;;12.30;99.90;;;;;;5033568;28;20183;-87
2023/07/20 03:59:05;;;;;;;2.28;0.47;;;12.30;99.90;;;;;;5012689;28;20453;-87
2023/07/20 04:01:47;;;;;;;;;;;;;;;;;;;;;
2023/07/20 04:04:43;;;;;;;2.85;0.93;;;12.30;99.90;;;;;;5011425;28;20053;-87
2023/07/20 04:07:09;;;;;;;2.05;1.10;;;12.30;99.90;;;;;;5008084;28;20050;-87
2023/07/20 04:09:40;;;;;;;3.42;1.42;;;12.20;99.90;;;;;;5027213;22;20104;-87
2023/07/20 04:16:02;;;;;;;5.00;2.03;;;12.20;99.90;;;;;;5054411;22;20132;-87
2023/07/20 04:27:57;;;;;;;7.13;2.10;;;12.40;99.90;;;;;;5051990;28;20252;-87
2023/07/20 04:30:55;;;;;;;10.48;2.30;;;12.50;99.90;;;;;;4980132;28;20054;-88
2023/07/20 04:33:32;;;;;;;;;;;12.60;99.90;;;;;;4958590;28;20362;-87
2023/07/20 04:35:58;;;;;;;4.80;2.40;;;12.60;99.90;;;;;;5045230;23;19952;-87
2023/07/20 04:42:07;;;;;;;5.03;2.58;;;12.90;99.90;;;;;;5050365;28;20160;-87
2023/07/20 04:45:06;;;;;;;3.20;1.95;;;13.00;99.90;;;;;;5045229;28;20049;-87
2023/07/20 04:52:51;;;;;;;;;;;;;;;;;;;;;
2023/07/20 04:56:42;;;;;;;4.10;1.85;;;13.60;99.90;;;;;;4862115;29;20218;-86
2023/07/20 05:12:16;;;;;;;;;;;;;;;;;;;;;
2023/07/20 05:15:58;;;;;;;3.70;1.30;;;14.30;99.90;;;;;;4843427;29;20121;-86
2023/07/20 05:22:36;;;;;;;4.22;1.15;;;14.60;99.90;;;;;;4803953;29;19970;-87
2023/07/20 05:33:22;;;;;;;5.25;0.80;;;15.10;99.90;;;;;;5026840;28;20045;-86
2023/07/20 05:36:10;;;;;;;4.75;1.27;;;15.20;99.90;;;;;;5011287;28;20099;-86
2023/07/20 05:38:49;;;;;;;3.63;0.98;;;15.30;99.90;;;;;;5044534;28;20119;-86
2023/07/20 05:41:45;;;;;;;2.35;1.00;;;15.30;99.90;;;;;;5044772;28;20059;-86
2023/07/20 05:44:37;;;;;;;5.93;1.13;;;15.40;99.90;;;;;;5030470;28;20435;-87
2023/07/20 05:48:16;;;;;;;6.15;0.75;;;15.50;99.90;;;;;;5046663;28;20124;-86
2023/07/20 05:50:54;;;;;;;2.13;0.63;;;15.60;99.90;;;;;;5003579;28;20056;-86
2023/07/20 05:53:38;;;;;;;3.10;0.63;;;15.60;99.90;;;;;;5015839;28;20124;-86
2023/07/20 05:56:16;;;;;;;4.07;0.80;;;15.70;99.90;;;;;;5040595;28;20068;-87
2023/07/20 05:58:57;;;;;;;5.63;0.90;;;15.80;99.90;;;;;;5043274;28;20041;-86
2023/07/20 06:01:44;;;;;;;3.47;1.00;;;15.90;99.90;;;;;;5009550;28;20549;-86
2023/07/20 06:04:13;;;;;;;3.58;0.85;;;16.00;99.90;;;;;;5040875;28;20088;-86
2023/07/20 06:06:39;;;;;;;5.30;1.10;;;16.00;99.90;;;;;;5027441;28;20152;-86
2023/07/20 06:09:07;;;;;;;6.65;0.98;;;16.10;99.90;;;;;;5010365;28;20044;-86
2023/07/20 06:11:45;;;;;;;4.57;0.93;;;16.20;99.90;;;;;;5043035;28;20053;-86
2023/07/20 06:14:23;;;;;;;10.10;2.17;;;16.20;99.90;;;;;;5043314;28;20095;-86
2023/07/20 06:17:07;;;;;;;4.53;1.33;;;16.40;99.90;;;;;;5042768;28;20103;-86
2023/07/20 06:19:48;;;;;;;4.88;1.10;;;16.40;99.90;;;;;;5025893;28;20053;-86
2023/07/20 06:22:19;;;;;;;5.28;0.95;;;16.50;99.90;;;;;;5032008;28;20045;-86
2023/07/20 06:24:47;;;;;;;2.90;0.68;;;16.60;99.90;;;;;;5033473;28;20057;-86
2023/07/20 06:27:12;;;;;;;5.30;0.88;;;16.70;99.90;;;;;;5009695;28;20041;-86
2023/07/20 06:29:38;;;;;;;10.48;1.00;;;16.80;99.90;;;;;;5026589;28;20049;-85
2023/07/20 06:32:14;;;;;;;3.97;0.95;;;16.80;99.90;;;;;;5009425;28;20133;-85
2023/07/20 06:35:00;;;;;;;3.03;0.88;;;16.90;99.90;;;;;;5025180;28;20057;-85
2023/07/20 06:37:26;;;;;;;6.45;1.35;;;16.90;99.90;;;;;;5026490;28;20053;-85
2023/07/20 06:39:52;;;;;;;5.13;0.90;;;17.00;99.90;;;;;;5026536;28;20037;-86
2023/07/20 06:42:18;;;;;;;4.35;0.93;;;17.00;99.90;;;;;;5009630;28;20053;-85
2023/07/20 06:44:44;;;;;;;6.30;1.08;;;17.10;99.90;;;;;;5009255;28;20057;-86
2023/07/20 06:47:10;;;;;;;5.80;1.30;;;17.20;99.90;;;;;;5009918;28;20541;-86
2023/07/20 06:49:50;;;;;;;4.07;1.00;;;17.30;99.90;;;;;;5013676;28;20049;-85
2023/07/20 06:52:16;;;;;;;3.45;1.00;;;17.30;99.90;;;;;;4982211;28;20180;-86
2023/07/20 06:54:43;;;;;;;6.63;1.40;;;17.40;99.90;;;;;;5008299;28;20045;-85
2023/07/20 06:57:08;;;;;;;5.15;1.20;;;17.50;99.90;;;;;;5002181;28;20442;-86
2023/07/20 06:59:41;;;;;;;4.82;1.40;;;17.60;99.90;;;;;;5036912;28;20048;-89
2023/07/20 07:02:41;;;;;;;7.50;1.17;;;17.70;99.90;;;;;;5013425;28;20103;-87
2023/07/20 07:05:16;;;;;;;7.88;2.00;;;17.70;99.90;;;;;;5024980;28;20081;-88
2023/07/20 07:08:28;;;;;;;8.32;1.60;;;17.90;99.90;;;;;;4992485;28;20038;-88
2023/07/20 07:11:32;;;;;;;5.28;1.60;;;17.80;99.90;;;;;;4972248;28;20054;-87
2023/07/20 07:14:30;;;;;;;8.50;1.35;;;18.00;99.90;;;;;;4929356;29;20094;-88
2023/07/20 07:17:32;;;;;;;5.47;1.40;;;18.00;99.90;;;;;;4946390;28;20058;-87
2023/07/20 07:20:30;;;;;;;7.00;1.60;;;18.10;99.90;;;;;;4991000;28;20046;-89
2023/07/20 07:23:57;;;;;;;;;;;;;;;;;;;;;
2023/07/20 07:30:12;;;;;;;5.63;1.42;;;18.30;99.90;;;;;;5008038;28;20054;-87
2023/07/20 07:33:07;;;;;;;4.70;1.50;;;18.30;99.90;;;;;;5031112;28;20061;-87
2023/07/20 07:42:07;;;;;;;4.82;1.40;;;18.70;99.90;;;;;;5039439;28;20046;-88
2023/07/20 07:44:47;;;;;;;5.25;1.45;;;18.80;99.90;;;;;;5043354;28;20412;-88
2023/07/20 07:47:29;;;;;;;8.05;1.63;;;18.80;99.90;;;;;;5009545;28;20075;-87
2023/07/20 08:02:19;;;;;;;5.80;1.23;;;18.30;99.90;;;;;;5047701;28;20533;-88
2023/07/20 08:04:45;;;;;;;5.18;1.17;;;18.10;99.90;;;;;;5022355;28;20055;-86
2023/07/20 08:07:10;;;;;;;7.25;1.40;;;17.80;99.90;;;;;;5013526;28;20037;-87
2023/07/20 08:09:36;;;;;;;4.50;1.30;;;17.80;99.90;;;;;;5029468;28;20543;-85
2023/07/20 08:12:03;;;;;;;13.82;1.58;;;17.90;99.90;;;;;;5028448;28;20045;-86
2023/07/20 08:14:29;;;;;;;8.07;1.33;;;18.10;99.90;;;;;;5012587;28;20415;-86
2023/07/20 08:16:55;;;;;;;8.13;1.27;;;18.40;99.90;;;;;;5012455;28;20040;-86
2023/07/20 08:19:20;;;;;;;8.23;0.90;;;18.70;99.90;;;;;;5029275;28;20467;-87
2023/07/20 08:21:46;;;;;;;8.93;1.20;;;19.00;99.90;;;;;;5027951;28;20570;-87
2023/07/20 08:24:12;;;;;;;3.85;1.00;;;19.20;99.90;;;;;;5029829;28;20075;-88
2023/07/20 08:26:37;;;;;;;5.18;1.05;;;19.20;99.90;;;;;;5013209;28;20049;-86
2023/07/20 08:29:03;;;;;;;5.22;1.23;;;19.10;99.90;;;;;;5030021;28;20049;-87
2023/07/20 08:31:32;;;;;;;4.55;0.90;;;19.10;99.90;;;;;;5013238;28;20049;-86
2023/07/20 08:33:58;;;;;;;9.52;1.15;;;19.10;99.90;;;;;;5029583;28;20400;-87
2023/07/20 08:36:24;;;;;;;5.88;1.15;;;19.20;99.90;;;;;;5030471;28;20514;-87
2023/07/20 08:38:50;;;;;;;3.47;0.77;;;19.30;99.90;;;;;;5048173;28;20045;-87
2023/07/20 08:41:17;;;;;;;2.92;0.70;;;19.40;99.90;;;;;;5010148;28;20041;-86
2023/07/20 08:43:43;;;;;;;4.43;0.85;;;19.60;99.90;;;;;;5029992;28;20048;-86
2023/07/20 08:46:12;;;;;;;4.30;0.82;;;19.70;99.90;;;;;;5029930;28;20048;-86
2023/07/20 08:48:40;;;;;;;3.13;0.75;;;19.60;99.90;;;;;;5031120;28;20490;-87
2023/07/20 08:51:06;;;;;;;6.15;1.05;;;19.40;99.90;;;;;;5014910;28;20555;-86
2023/07/20 08:53:33;;;;;;;5.45;0.68;;;19.40;99.90;;;;;;5050145;28;20052;-86
2023/07/20 08:56:01;;;;;;;3.60;0.60;;;19.30;99.90;;;;;;5014246;28;20044;-86
2023/07/20 08:58:28;;;;;;;3.50;0.80;;;19.40;99.90;;;;;;5031763;28;20403;-86
2023/07/20 09:00:55;;;;;;;1.50;0.50;;;19.60;99.90;;;;;;5034969;28;20536;-85
2023/07/20 09:03:21;;;;;;;4.07;0.70;;;19.90;99.90;;;;;;5067587;28;20070;-86
2023/07/20 09:05:47;;;;;;;2.58;0.50;;;20.10;99.90;;;;;;5067348;28;20640;-86
2023/07/20 09:08:13;;;;;;;4.38;0.80;;;20.10;99.90;;;;;;5066857;28;20083;-86
2023/07/20 09:10:39;;;;;;;4.03;0.60;;;20.10;99.90;;;;;;5065971;28;20500;-85
2023/07/20 09:13:05;;;;;;;2.80;0.55;;;19.80;99.90;;;;;;5048477;28;20079;-86
2023/07/20 09:15:45;;;;;;;2.42;0.57;;;19.60;99.90;;;;;;5068005;28;20087;-85
2023/07/20 09:18:11;;;;;;;3.97;0.50;;;19.40;99.90;;;;;;5050308;28;20106;-85
2023/07/20 09:20:37;;;;;;;4.45;0.70;;;19.60;99.90;;;;;;5067122;28;20040;-86
2023/07/20 09:23:06;;;;;;;2.08;0.50;;;19.80;99.90;;;;;;5067333;28;20048;-86
2023/07/20 09:25:32;;;;;;;6.22;0.73;;;20.00;99.90;;;;;;5066711;28;20481;-86
2023/07/20 09:28:03;;;;;;;2.65;0.88;;;20.00;99.90;;;;;;5067250;28;20064;-85
2023/07/20 09:30:28;;;;;;;4.93;0.88;;;19.90;99.90;;;;;;5054241;28;20053;-86
2023/07/20 09:32:54;;;;;;;2.42;0.55;;;19.60;99.90;;;;;;5050135;28;20044;-85
2023/07/20 09:35:21;;;;;;;3.95;0.60;;;19.60;99.90;;;;;;5054881;28;20505;-86
2023/07/20 09:37:54;;;;;;;4.60;0.80;;;19.90;99.90;;;;;;5066631;28;20128;-85
2023/07/20 09:40:20;;;;;;;3.45;0.60;;;20.20;99.90;;;;;;5050793;28;20045;-85
2023/07/20 09:42:47;;;;;;;2.50;0.50;;;20.60;99.90;;;;;;5066802;28;20056;-85
2023/07/20 09:45:13;;;;;;;4.50;0.60;;;20.70;99.90;;;;;;5065784;28;20624;-86
2023/07/20 09:47:40;;;;;;;4.40;1.10;;;20.50;99.90;;;;;;5066815;28;20094;-85
2023/07/20 09:50:10;;;;;;;3.72;0.52;;;20.40;99.90;;;;;;5068692;28;20045;-86
2023/07/20 09:52:41;;;;;;;2.65;0.47;;;20.10;99.90;;;;;;5049158;28;20044;-86
2023/07/20 09:55:11;;;;;;;3.65;0.45;;;19.90;99.90;;;;;;5067016;28;20056;-86
2023/07/20 09:57:37;;;;;;;6.20;0.63;;;19.80;99.90;;;;;;5049595;28;20125;-86
2023/07/20 10:00:11;;;;;;;2.92;0.60;;;20.10;99.90;;;;;;5067332;28;20056;-86
2023/07/20 10:02:43;;;;;;;5.68;0.90;;;20.40;99.90;;;;;;5066456;28;20072;-86
2023/07/20 10:05:14;;;;;;;3.75;0.57;;;20.70;99.90;;;;;;5050597;28;20404;-86
2023/07/20 10:07:52;;;;;;;4.45;0.80;;;20.80;99.90;;;;;;5067313;28;20040;-86
2023/07/20 10:10:19;;;;;;;3.90;0.55;;;20.70;99.90;;;;;;5068183;28;20048;-86
2023/07/20 10:12:48;;;;;;;2.70;0.77;;;20.60;99.90;;;;;;5048913;28;20041;-85
2023/07/20 10:15:24;;;;;;;6.10;0.90;;;20.40;99.90;;;;;;5066179;28;20033;-86
2023/07/20 10:18:03;;;;;;;12.25;1.00;;;20.30;99.90;;;;;;5050033;28;20585;-86
2023/07/20 10:20:29;;;;;;;7.38;0.82;;;20.40;99.90;;;;;;5065637;28;20059;-86
2023/07/20 10:22:56;;;;;;;2.35;0.60;;;20.70;99.90;;;;;;5066309;28;20044;-86
2023/07/20 10:25:23;;;;;;;4.13;0.50;;;21.10;99.90;;;;;;5067726;28;20040;-84
2023/07/20 10:27:50;;;;;;;2.88;0.50;;;21.40;99.90;;;;;;5067096;28;20040;-85
2023/07/20 10:30:17;;;;;;;2.58;0.65;;;21.60;99.90;;;;;;5067999;28;20444;-86
2023/07/20 10:32:44;;;;;;;4.18;0.60;;;21.50;99.90;;;;;;5049899;28;20156;-86
2023/07/20 10:35:18;;;;;;;4.82;0.80;;;21.40;99.90;;;;;;5049483;28;20102;-86
2023/07/20 10:38:01;;;;;;;4.82;0.60;;;21.40;99.90;;;;;;5050163;28;20040;-86
2023/07/20 10:40:34;;;;;;;;;;;21.20;99.90;;;;;;5048231;28;20479;-86
2023/07/20 10:43:06;;;;;;;3.97;0.40;;;20.80;99.90;;;;;;5050264;28;19939;-86
2023/07/20 10:45:42;;;;;;;5.00;0.70;;;20.60;99.90;;;;;;5066005;28;20045;-86
2023/07/20 10:48:16;;;;;;;2.92;0.50;;;20.60;99.90;;;;;;5065700;28;20068;-85
2023/07/20 10:50:42;;;;;;;5.55;0.70;;;20.60;99.90;;;;;;5046100;28;20518;-85
2023/07/20 10:53:16;;;;;;;7.47;0.50;;;20.70;99.90;;;;;;5049129;28;20495;-85
2023/07/20 10:55:43;;;;;;;3.75;0.60;;;20.50;99.90;;;;;;5044539;28;20052;-84
2023/07/20 10:58:17;;;;;;;3.47;0.52;;;20.40;99.90;;;;;;5048805;28;20058;-85
2023/07/20 11:00:57;;;;;;;3.33;0.90;;;20.50;99.90;;;;;;5060960;28;20182;-84
2023/07/20 11:03:28;;;;;;;3.25;0.85;;;20.80;99.90;;;;;;5048525;28;20051;-86
2023/07/20 11:05:54;;;;;;;3.35;0.40;;;20.80;99.90;;;;;;5049573;28;20036;-85
2023/07/20 11:08:43;;;;;;;3.08;0.57;;;20.60;99.90;;;;;;5066792;28;20134;-85
2023/07/20 11:11:26;;;;;;;3.42;0.70;;;20.50;99.90;;;;;;5043279;28;20044;-86
2023/07/20 11:13:58;;;;;;;10.65;0.95;;;20.30;99.90;;;;;;5065973;28;20045;-85
2023/07/20 11:16:45;;;;;;;5.38;0.70;;;20.10;99.90;;;;;;5061955;28;20043;-85
2023/07/20 11:19:25;;;;;;;6.68;0.60;;;20.30;99.90;;;;;;5049266;28;20040;-86
2023/07/20 11:21:58;;;;;;;2.53;0.45;;;20.70;99.90;;;;;;5049237;28;20040;-86
2023/07/20 11:24:24;;;;;;;2.38;0.63;;;20.90;99.90;;;;;;5065869;28;20055;-85
2023/07/20 11:26:54;;;;;;;4.95;0.52;;;21.10;99.90;;;;;;5064834;28;20452;-85
2023/07/20 11:29:23;;;;;;;2.78;0.57;;;21.30;99.90;;;;;;5067342;28;20112;-85
2023/07/20 11:31:49;;;;;;;3.85;0.60;;;21.30;99.90;;;;;;5049323;28;20115;-86
2023/07/20 11:34:22;;;;;;;2.30;0.57;;;21.50;99.90;;;;;;5070220;28;20043;-86
2023/07/20 11:36:49;;;;;;;;;;;21.60;99.60;;;;;;5052569;28;20483;-82
2023/07/20 11:39:16;;;;;;;2.35;0.50;;;21.50;98.70;;;;;;5070695;28;19950;-85
2023/07/20 11:41:56;;;;;;;2.15;0.55;;;21.50;99.90;;;;;;5068016;28;20036;-86
2023/07/20 11:44:30;;;;;;;17.45;1.05;;;21.40;98.90;;;;;;5052890;28;20048;-86
2023/07/20 11:47:07;;;;;;;5.45;0.70;;;21.20;99.80;;;;;;5054537;28;20036;-85
2023/07/20 11:49:43;;;;;;;3.00;0.40;;;21.00;99.60;;;;;;5073805;28;20127;-86
2023/07/20 11:52:11;;;;;;;3.08;0.82;;;21.10;99.90;;;;;;5057960;28;20045;-85
2023/07/20 11:54:41;;;;;;;5.28;0.85;;;21.20;99.90;;;;;;5055378;28;20044;-86
2023/07/20 11:57:07;;;;;;;6.18;0.73;;;21.00;99.90;;;;;;5069005;28;20048;-85
2023/07/20 11:59:33;;;;;;;2.40;0.50;;;20.80;99.70;;;;;;5049803;28;20176;-86
2023/07/20 12:02:03;;;;;;;4.20;0.75;;;20.60;99.40;;;;;;5066597;28;20045;-86
2023/07/20 12:04:31;;;;;;;3.40;0.60;;;20.40;99.60;;;;;;5067681;28;20404;-86
2023/07/20 12:06:56;;;;;;;29.00;1.85;;;20.60;99.80;;;;;;5066085;28;20040;-84
2023/07/20 12:09:22;;;;;;;2.70;0.47;;;20.70;99.90;;;;;;5051442;28;20055;-85
2023/07/20 12:11:49;;;;;;;2.10;0.40;;;20.70;99.90;;;;;;5061440;28;20500;-85
2023/07/20 12:14:15;;;;;;;5.95;0.68;;;20.80;99.90;;;;;;5068799;28;20049;-85
2023/07/20 12:16:41;;;;;;;4.60;0.68;;;21.10;99.90;;;;;;5050388;28;20068;-85
2023/07/20 12:19:09;;;;;;;3.55;0.45;;;21.40;99.90;;;;;;5066818;28;20036;-84
2023/07/20 12:21:37;;;;;;;2.22;0.45;;;21.40;99.80;;;;;;5067870;28;20037;-85
2023/07/20 12:24:04;;;;;;;11.48;0.60;;;21.30;99.30;;;;;;5068763;28;20044;-84
2023/07/20 12:26:31;;;;;;;2.25;0.55;;;21.10;99.10;;;;;;5067482;28;20040;-84
2023/07/20 12:28:57;;;;;;;10.68;0.85;;;20.90;99.30;;;;;;5052081;28;20123;-84
2023/07/20 12:31:24;;;;;;;1.15;0.32;;;20.70;99.40;;;;;;5069232;28;20059;-84
2023/07/20 12:33:51;;;;;;;3.22;0.60;;;20.60;99.50;;;;;;5051286;28;20044;-83
2023/07/20 12:36:18;;;;;;;4.82;0.93;;;20.60;99.90;;;;;;5069197;28;20519;-85
2023/07/20 12:38:44;;;;;;;2.92;0.73;;;20.70;99.90;;;;;;5068369;28;20045;-84
2023/07/20 12:41:14;;;;;;;2.63;0.60;;;20.90;99.90;;;;;;5050903;28;20051;-84
2023/07/20 12:43:41;;;;;;;3.13;0.50;;;21.00;99.70;;;;;;5051095;28;20044;-84
2023/07/20 12:46:08;;;;;;;1.23;0.38;;;21.20;99.90;;;;;;5051880;28;20422;-84
2023/07/20 12:48:34;;;;;;;2.50;0.65;;;21.20;99.90;;;;;;5051694;28;20443;-84
2023/07/20 12:51:00;;;;;;;4.50;0.68;;;21.30;99.90;;;;;;5051738;28;20083;-84
2023/07/20 12:53:27;;;;;;;1.70;0.50;;;21.20;99.80;;;;;;5052594;28;20076;-85
2023/07/20 12:55:52;;;;;;;4.78;0.50;;;21.00;99.90;;;;;;5069501;28;20040;-86
2023/07/20 12:58:18;;;;;;;2.83;0.47;;;20.90;99.80;;;;;;5052650;28;20086;-84
2023/07/20 13:00:44;;;;;;;1.60;0.60;;;20.70;99.90;;;;;;5069456;28;20052;-84
2023/07/20 13:03:10;;;;;;;2.53;0.55;;;20.50;99.90;;;;;;5051846;28;20052;-85
2023/07/20 13:05:36;;;;;;;2.70;0.60;;;20.40;99.90;;;;;;5069952;28;20033;-86
2023/07/20 13:08:03;;;;;;;2.22;0.55;;;20.30;99.90;;;;;;5069499;28;20127;-85
2023/07/20 13:10:29;;;;;;;6.53;0.80;;;20.30;99.90;;;;;;5051747;28;20109;-85
2023/07/20 13:12:54;;;;;;;2.17;0.52;;;20.30;99.90;;;;;;5070317;28;20590;-85
2023/07/20 13:15:20;;;;;;;3.50;0.55;;;20.40;99.90;;;;;;5050832;28;20127;-85
2023/07/20 13:17:47;;;;;;;5.35;0.60;;;20.50;99.90;;;;;;5068937;28;20047;-85
2023/07/20 13:20:13;;;;;;;2.72;0.75;;;20.60;99.90;;;;;;5057373;28;20041;-85
2023/07/20 13:22:40;;;;;;;3.03;0.40;;;20.80;99.90;;;;;;5050531;28;20079;-84
2023/07/20 13:25:06;;;;;;;3.97;0.73;;;21.10;99.90;;;;;;5069141;28;20056;-85
2023/07/20 13:27:32;;;;;;;3.08;0.45;;;21.40;99.90;;;;;;5067700;28;20044;-84
2023/07/20 13:30:00;;;;;;;12.93;0.88;;;21.50;99.90;;;;;;5047861;28;20554;-85
2023/07/20 13:32:27;;;;;;;4.80;0.70;;;21.40;99.90;;;;;;5035996;28;20060;-85
2023/07/20 13:34:52;;;;;;;9.45;0.70;;;21.30;99.90;;;;;;5067797;28;20474;-85
2023/07/20 13:37:18;;;;;;;2.83;0.60;;;21.30;99.90;;;;;;5067690;28;20078;-84
2023/07/20 13:39:44;;;;;;;9.98;0.77;;;21.10;99.90;;;;;;5054758;28;20056;-85
2023/07/20 13:42:11;;;;;;;5.55;1.65;;;20.80;99.90;;;;;;5051249;28;20049;-85
2023/07/20 13:44:37;;;;;;;3.90;0.90;;;20.70;99.90;;;;;;5050226;28;20383;-85
2023/07/20 13:47:06;;;;;;;4.13;0.63;;;20.50;99.90;;;;;;5068434;28;20554;-87
2023/07/20 13:49:32;;;;;;;1.85;0.60;;;20.30;99.90;;;;;;5049963;28;20067;-86
2023/07/20 13:51:58;;;;;;;6.43;0.75;;;20.30;99.90;;;;;;5065219;28;20079;-87
2023/07/20 13:54:24;;;;;;;9.23;0.68;;;20.40;99.90;;;;;;5067530;28;20094;-88
2023/07/20 13:56:51;;;;;;;2.95;0.60;;;20.70;99.90;;;;;;5049173;28;20095;-85
2023/07/20 13:59:17;;;;;;;5.45;0.85;;;20.80;99.90;;;;;;5049104;28;20053;-85
2023/07/20 14:01:44;;;;;;;3.47;0.55;;;21.10;99.90;;;;;;5066749;28;20062;-88
2023/07/20 14:04:10;;;;;;;1.75;0.50;;;21.40;99.90;;;;;;5067774;28;20115;-86
2023/07/20 14:06:35;;;;;;;3.45;0.52;;;21.50;99.90;;;;;;5067483;28;20492;-89
2023/07/20 14:09:03;;;;;;;3.72;0.80;;;21.50;99.90;;;;;;5054607;28;20119;-87
2023/07/20 14:11:29;;;;;;;5.85;0.52;;;21.60;99.90;;;;;;5050102;28;20040;-86
2023/07/20 14:13:55;;;;;;;6.25;0.70;;;21.50;99.90;;;;;;5050622;28;20465;-85
2023/07/20 14:16:21;;;;;;;4.28;0.90;;;21.50;99.90;;;;;;5050294;28;20102;-86
2023/07/20 14:18:48;;;;;;;2.63;0.57;;;21.40;99.90;;;;;;5049918;28;20041;-84
2023/07/20 14:21:19;;;;;;;4.03;0.70;;;21.40;99.90;;;;;;5068672;28;20037;-86
2023/07/20 14:23:46;;;;;;;2.08;0.50;;;21.30;99.90;;;;;;5067126;28;20043;-85
2023/07/20 14:26:12;;;;;;;6.20;0.85;;;21.30;99.90;;;;;;5065920;28;20127;-85
2023/07/20 14:28:38;;;;;;;5.07;0.80;;;21.40;99.90;;;;;;5050731;28;20104;-87
2023/07/20 14:31:04;;;;;;;5.43;0.75;;;21.50;99.90;;;;;;5067507;28;20512;-87
2023/07/20 14:33:31;;;;;;;4.10;0.88;;;21.50;99.90;;;;;;5049173;28;20037;-85
2023/07/20 14:35:58;;;;;;;4.30;0.70;;;21.60;99.90;;;;;;5049712;28;20052;-85